Time;durP1;ratioP1;P1;durP2;ratioP2;P2;SDS_P1;SDS_P2;PMS_P1;PMS_P2;Temp;Humidity;BMP_temperature;BMP_pressure;BME280_temperature;BME280_humidity;BME280_pressure;Samples;Min_cycle;Max_cycle;Signal;HPM_P1;HPM_P2
2021/09/21 00:01:16;;;;;;;14.40;9.70;;;;;;;6.10;82.14;99412.89;236087;1198;22445;-76
2021/09/21 00:06:32;;;;;;;16.90;10.70;;;;;;;6.10;82.20;99416.62;236087;1190;24105;-74
2021/09/21 00:11:42;;;;;;;15.80;10.40;;;;;;;6.03;81.88;99416.08;236117;1197;22447;-73
2021/09/21 00:16:49;;;;;;;17.20;10.40;;;;;;;5.96;82.10;99415.37;236225;1197;22456;-76
2021/09/21 00:21:55;;;;;;;13.90;9.40;;;;;;;5.91;82.09;99410.87;236009;1197;24049;-75
2021/09/21 00:27:00;;;;;;;13.10;9.20;;;;;;;5.82;81.81;99413.12;236081;1197;26446;-75
2021/09/21 00:32:03;;;;;;;14.60;10.40;;;;;;;5.72;82.26;99414.49;236548;1197;24076;-76
2021/09/21 00:37:13;;;;;;;14.70;9.90;;;;;;;5.62;82.02;99417.35;236150;1196;24073;-76
2021/09/21 00:42:23;;;;;;;17.50;9.70;;;;;;;5.52;82.07;99423.05;236195;1190;25232;-74
2021/09/21 00:47:26;;;;;;;16.40;9.40;;;;;;;5.46;82.47;99429.10;236284;1197;25237;-74
2021/09/21 00:52:29;;;;;;;13.80;8.70;;;;;;;5.41;82.44;99423.86;235984;1197;22457;-74
2021/09/21 00:57:35;;;;;;;15.00;9.50;;;;;;;5.34;82.57;99426.96;236143;1193;22421;-76
2021/09/21 01:02:38;;;;;;;15.40;9.10;;;;;;;5.27;82.79;99426.41;236324;1197;24294;-74
2021/09/21 01:07:43;;;;;;;12.60;8.90;;;;;;;5.25;82.90;99424.36;236312;1197;23896;-73
2021/09/21 01:12:47;;;;;;;15.80;10.00;;;;;;;5.29;83.17;99424.23;236201;1197;25227;-74
2021/09/21 01:17:52;;;;;;;13.60;8.40;;;;;;;5.32;83.40;99426.13;236510;1189;24043;-76
2021/09/21 01:22:55;;;;;;;15.20;10.20;;;;;;;5.32;83.38;99430.06;236162;1197;22455;-77
2021/09/21 01:27:59;;;;;;;15.30;9.90;;;;;;;5.32;83.36;99427.45;236239;1192;23999;-75
2021/09/21 01:33:03;;;;;;;14.10;9.40;;;;;;;5.33;83.40;99428.96;236430;1191;22445;-76
2021/09/21 01:38:05;;;;;;;16.50;9.60;;;;;;;5.39;83.94;99428.06;236411;1197;24075;-74
2021/09/21 01:43:08;;;;;;;12.30;8.50;;;;;;;5.41;83.70;99421.19;236355;1197;24121;-75
2021/09/21 01:48:10;;;;;;;12.90;9.00;;;;;;;5.41;83.94;99421.23;235835;1177;24538;-75
2021/09/21 02:03:36;;;;;;;14.30;8.60;;;;;;;5.07;82.30;99417.15;236028;1192;25157;-74
2021/09/21 02:08:38;;;;;;;12.80;8.50;;;;;;;4.88;82.60;99417.48;236455;1194;24136;-75
2021/09/21 02:13:41;;;;;;;14.10;9.60;;;;;;;4.73;82.52;99415.89;236019;1189;25220;-75
2021/09/21 02:18:54;;;;;;;15.10;8.30;;;;;;;4.59;82.40;99423.54;235867;1197;24039;-76
2021/09/21 02:24:04;;;;;;;11.70;7.80;;;;;;;4.53;82.77;99431.49;236103;1192;22493;-76
2021/09/21 02:29:08;;;;;;;10.70;7.70;;;;;;;4.48;83.22;99431.13;236399;1197;24753;-76
2021/09/21 02:34:17;;;;;;;11.80;8.40;;;;;;;4.45;83.35;99431.07;236055;1197;25264;-76
2021/09/21 02:39:31;;;;;;;11.40;8.20;;;;;;;4.43;83.65;99435.11;236130;1197;24056;-76
2021/09/21 02:44:34;;;;;;;14.40;9.80;;;;;;;4.41;83.67;99438.25;236089;1197;22986;-73
2021/09/21 02:49:37;;;;;;;12.50;9.00;;;;;;;4.39;83.60;99444.58;236107;1197;25478;-74
2021/09/21 02:54:40;;;;;;;11.80;8.70;;;;;;;4.43;83.94;99450.66;236498;1197;26188;-76
2021/09/21 02:59:42;;;;;;;9.50;6.80;;;;;;;4.59;84.59;99454.29;236263;1192;24057;-74
2021/09/21 03:04:53;;;;;;;7.50;5.70;;;;;;;4.71;84.71;99455.20;236179;1190;25200;-77
2021/09/21 03:20:41;;;;;;;18.10;8.10;;;;;;;4.74;83.98;99448.67;236037;1190;24099;-76
2021/09/21 03:25:43;;;;;;;10.10;7.60;;;;;;;4.68;84.00;99453.91;236111;1197;24048;-75
2021/09/21 03:30:46;;;;;;;9.80;7.30;;;;;;;4.59;84.04;99448.73;236035;1197;24059;-75
2021/09/21 03:36:02;;;;;;;10.30;7.90;;;;;;;4.48;84.06;99451.71;236175;1192;25055;-74
2021/09/21 03:41:21;;;;;;;10.20;7.70;;;;;;;4.40;84.15;99455.85;236180;1197;22451;-75
2021/09/21 03:46:23;;;;;;;10.70;7.30;;;;;;;4.41;84.60;99456.72;236268;1193;22499;-76
2021/09/21 03:51:26;;;;;;;10.00;7.60;;;;;;;4.45;85.00;99458.61;236188;1189;24158;-77
2021/09/21 03:56:29;;;;;;;12.30;9.00;;;;;;;4.52;85.17;99452.87;236496;1197;24086;-74
2021/09/21 04:01:45;;;;;;;13.00;8.80;;;;;;;4.64;85.27;99458.33;236088;1189;24053;-76
2021/09/21 04:06:49;;;;;;;10.90;7.40;;;;;;;4.76;85.37;99454.30;236317;1197;25129;-74
2021/09/21 04:11:52;;;;;;;9.60;7.40;;;;;;;4.83;85.16;99443.19;236152;1197;24026;-76
2021/09/21 04:16:57;;;;;;;14.80;9.80;;;;;;;4.80;84.82;99438.88;236205;1190;22440;-76
2021/09/21 04:22:01;;;;;;;13.30;9.30;;;;;;;4.69;84.96;99437.48;236153;1197;24017;-76
2021/09/21 04:27:07;;;;;;;11.50;8.00;;;;;;;4.64;85.14;99445.01;236201;1190;24082;-76
2021/09/21 04:32:14;;;;;;;13.20;8.00;;;;;;;4.68;85.01;99445.11;236057;1197;22439;-78
2021/09/21 04:37:17;;;;;;;10.60;7.90;;;;;;;4.74;85.08;99440.38;236112;1197;22552;-75
2021/09/21 04:42:22;;;;;;;13.50;9.10;;;;;;;4.72;85.36;99456.51;236218;1197;22550;-75
2021/09/21 04:47:24;;;;;;;12.70;8.40;;;;;;;4.78;85.55;99466.81;236190;1197;25269;-76
2021/09/21 04:52:27;;;;;;;11.70;7.50;;;;;;;4.88;85.20;99467.77;236173;1197;24085;-75
2021/09/21 04:57:30;;;;;;;14.90;9.40;;;;;;;5.05;86.02;99479.89;236140;1190;24091;-76
2021/09/21 05:02:33;;;;;;;9.50;7.20;;;;;;;5.23;85.75;99488.02;236299;1193;24030;-75
2021/09/21 05:07:36;;;;;;;10.90;7.20;;;;;;;5.36;85.35;99492.95;236144;1190;22429;-75
2021/09/21 05:12:39;;;;;;;9.40;6.50;;;;;;;5.51;85.45;99501.20;236443;1197;24139;-75
2021/09/21 05:17:42;;;;;;;13.50;7.40;;;;;;;5.65;85.24;99509.02;236002;1197;24988;-73
2021/09/21 05:22:50;;;;;;;9.30;6.40;;;;;;;5.81;85.18;99515.95;236076;1197;22416;-76
2021/09/21 05:27:54;;;;;;;10.30;6.70;;;;;;;5.95;85.04;99515.20;236038;1196;23020;-74
2021/09/21 05:32:56;;;;;;;10.80;7.00;;;;;;;6.10;85.11;99515.73;236021;1197;22569;-75
2021/09/21 05:37:59;;;;;;;10.30;7.30;;;;;;;6.32;85.12;99521.58;236212;1190;22445;-74
2021/09/21 05:43:02;;;;;;;10.40;7.60;;;;;;;6.51;84.96;99534.16;236436;1187;22494;-76
2021/09/21 05:48:05;;;;;;;15.30;7.80;;;;;;;6.71;84.61;99537.82;237029;1197;22522;-75
2021/09/21 05:53:08;;;;;;;10.50;7.20;;;;;;;6.82;84.07;99534.98;236725;1197;24133;-75
2021/09/21 05:58:10;;;;;;;10.20;7.40;;;;;;;6.87;83.90;99541.95;236745;1189;24064;-75
2021/09/21 06:03:13;;;;;;;10.50;6.60;;;;;;;7.04;84.11;99548.67;236940;1193;26193;-75
2021/09/21 06:08:15;;;;;;;9.60;6.50;;;;;;;7.26;84.08;99551.73;237530;1190;25135;-77
2021/09/21 06:13:25;;;;;;;8.70;6.20;;;;;;;7.43;83.45;99555.73;236867;1196;22448;-75
2021/09/21 06:18:28;;;;;;;9.50;6.50;;;;;;;7.61;83.35;99567.77;236765;1190;25095;-75
2021/09/21 06:23:31;;;;;;;9.80;6.20;;;;;;;7.83;83.22;99572.73;236735;1190;22455;-74
2021/09/21 06:28:33;;;;;;;8.20;5.90;;;;;;;8.04;83.41;99569.52;236657;1190;22555;-75
2021/09/21 06:33:36;;;;;;;14.30;8.20;;;;;;;8.25;83.10;99575.73;236882;1194;22438;-75
2021/09/21 06:38:39;;;;;;;13.70;8.30;;;;;;;8.50;83.26;99565.56;237296;1190;22414;-73
2021/09/21 06:43:41;;;;;;;17.20;9.00;;;;;;;8.75;83.24;99566.23;236755;1190;24052;-74
2021/09/21 06:48:44;;;;;;;14.10;8.90;;;;;;;8.99;82.95;99569.17;236453;1190;22426;-75
2021/09/21 06:53:50;;;;;;;13.80;8.50;;;;;;;9.19;82.69;99565.82;236971;1196;22431;-76
2021/09/21 06:59:10;;;;;;;12.40;8.50;;;;;;;9.48;82.61;99563.65;237266;1196;22809;-76
2021/09/21 07:04:13;;;;;;;11.30;8.10;;;;;;;9.76;82.24;99559.88;237177;1190;25317;-74
2021/09/21 07:09:26;;;;;;;14.10;8.40;;;;;;;9.98;81.91;99559.73;237007;1194;22459;-74
2021/09/21 07:14:46;;;;;;;;;;;;;;;10.29;81.99;99561.81;236487;1197;22554;-75
2021/09/21 07:19:49;;;;;;;13.90;8.70;;;;;;;10.55;81.39;99564.63;236246;1190;22442;-76
2021/09/21 07:24:51;;;;;;;13.50;9.00;;;;;;;10.72;81.24;99571.41;236277;1197;24082;-74
2021/09/21 07:29:54;;;;;;;13.90;9.30;;;;;;;11.03;81.27;99579.45;236507;1190;24089;-75
2021/09/21 07:34:57;;;;;;;11.30;7.60;;;;;;;11.26;80.45;99579.14;236258;1197;24580;-74
2021/09/21 07:40:00;;;;;;;12.30;8.80;;;;;;;11.31;79.51;99582.40;236299;1190;24020;-73
2021/09/21 07:45:07;;;;;;;13.60;10.30;;;;;;;11.46;79.78;99589.69;236475;1190;24600;-74
2021/09/21 07:50:11;;;;;;;10.30;8.30;;;;;;;11.59;79.55;99601.25;236266;1190;22451;-74
2021/09/21 07:55:15;;;;;;;13.90;9.60;;;;;;;11.62;78.92;99603.27;236379;1190;24162;-75
2021/09/21 08:00:20;;;;;;;11.30;9.00;;;;;;;11.62;78.66;99610.77;236367;1197;22457;-74
2021/09/21 08:05:23;;;;;;;13.30;9.00;;;;;;;11.56;78.53;99605.66;236262;1197;22482;-74
2021/09/21 08:10:26;;;;;;;13.00;9.00;;;;;;;11.39;78.16;99600.83;236307;1190;22433;-73
2021/09/21 08:15:30;;;;;;;12.20;8.90;;;;;;;11.31;78.72;99602.09;236082;1190;25208;-76
2021/09/21 08:20:40;;;;;;;10.90;8.50;;;;;;;11.39;78.75;99598.95;236315;1196;24156;-73
2021/09/21 08:25:44;;;;;;;11.70;8.20;;;;;;;11.46;78.45;99605.42;236592;1197;25213;-73
2021/09/21 08:30:48;;;;;;;10.00;6.70;;;;;;;11.73;78.83;99606.39;236348;1193;24059;-74
2021/09/21 08:35:50;;;;;;;8.50;7.20;;;;;;;12.07;78.26;99609.14;236066;1190;25218;-76
2021/09/21 08:40:53;;;;;;;8.70;7.10;;;;;;;12.38;77.88;99614.26;236376;1190;24056;-74
2021/09/21 08:45:55;;;;;;;9.50;6.10;;;;;;;12.74;77.39;99619.90;236738;1190;25197;-75
2021/09/21 08:50:58;;;;;;;9.00;5.20;;;;;;;13.02;75.58;99625.90;236499;1190;24079;-76
2021/09/21 08:56:01;;;;;;;6.60;5.40;;;;;;;13.20;73.87;99623.20;236947;1191;22444;-79
2021/09/21 09:01:12;;;;;;;5.30;3.90;;;;;;;13.43;73.70;99623.79;236960;1190;23121;-72
2021/09/21 09:06:15;;;;;;;8.40;5.50;;;;;;;13.67;72.00;99624.31;237003;1190;22427;-79
2021/09/21 09:11:25;;;;;;;6.80;6.10;;;;;;;13.71;71.44;99620.77;236960;1191;22463;-76
2021/09/21 09:16:32;;;;;;;9.50;5.80;;;;;;;13.77;71.45;99623.98;237151;1197;22445;-76
2021/09/21 09:21:37;;;;;;;6.90;5.40;;;;;;;13.81;71.31;99614.02;236780;1190;22438;-78
2021/09/21 09:26:43;;;;;;;7.20;5.00;;;;;;;13.67;69.73;99607.77;236994;1190;24037;-74
2021/09/21 09:31:46;;;;;;;7.80;5.00;;;;;;;13.60;70.03;99614.67;236801;1197;24105;-75
2021/09/21 09:36:50;;;;;;;6.50;4.80;;;;;;;13.65;70.05;99616.55;237827;1190;22480;-76
2021/09/21 09:41:56;;;;;;;5.30;4.70;;;;;;;13.88;69.91;99618.45;236765;1190;24027;-74
2021/09/21 09:47:05;;;;;;;7.00;5.30;;;;;;;14.20;69.34;99615.23;236408;1197;24109;-76
2021/09/21 09:52:10;;;;;;;8.50;5.60;;;;;;;14.38;68.99;99617.28;236561;1197;22558;-76
2021/09/21 09:57:17;;;;;;;7.70;5.60;;;;;;;14.41;67.87;99610.44;236542;1190;24040;-75
2021/09/21 10:02:22;;;;;;;6.20;4.70;;;;;;;14.51;67.42;99617.19;236897;1190;22427;-76
2021/09/21 10:07:25;;;;;;;6.10;5.20;;;;;;;14.66;66.75;99615.99;237769;1183;22555;-76
2021/09/21 10:12:33;;;;;;;7.80;6.40;;;;;;;14.94;66.49;99621.86;237317;1197;22416;-76
2021/09/21 10:17:47;;;;;;;4.00;3.40;;;;;;;14.98;64.95;99618.48;236429;1190;24031;-77
2021/09/21 10:22:56;;;;;;;3.70;3.30;;;;;;;14.91;63.91;99610.63;236592;1196;23988;-75
2021/09/21 10:28:00;;;;;;;6.60;3.00;;;;;;;14.84;63.35;99612.54;236807;1190;22795;-76
2021/09/21 10:33:03;;;;;;;2.90;2.50;;;;;;;14.87;63.59;99606.13;236784;1184;24053;-76
2021/09/21 10:38:15;;;;;;;3.50;2.70;;;;;;;14.72;62.44;99603.45;236241;1196;24130;-75
2021/09/21 10:43:34;;;;;;;4.10;3.10;;;;;;;14.77;62.46;99594.95;236311;1194;24044;-76
2021/09/21 10:48:50;;;;;;;4.50;3.60;;;;;;;15.04;62.19;99591.47;236390;1183;24063;-77
2021/09/21 10:54:02;;;;;;;5.10;3.10;;;;;;;15.31;62.01;99585.83;236241;1197;25098;-74
2021/09/21 10:59:15;;;;;;;5.70;3.90;;;;;;;15.65;62.07;99587.15;236905;1190;22437;-74
2021/09/21 11:04:18;;;;;;;4.90;3.60;;;;;;;16.02;61.20;99585.90;236627;1197;25146;-73
2021/09/21 11:09:26;;;;;;;4.40;3.70;;;;;;;16.05;59.91;99589.14;236590;1197;25292;-75
2021/09/21 11:14:29;;;;;;;6.70;4.10;;;;;;;15.62;59.25;99586.22;236569;1190;23027;-75
2021/09/21 11:19:32;;;;;;;7.20;4.80;;;;;;;15.22;59.47;99585.63;236699;1190;22447;-75
2021/09/21 11:24:38;;;;;;;4.90;4.00;;;;;;;14.88;60.46;99594.06;236979;1197;22442;-74
2021/09/21 11:29:41;;;;;;;6.20;4.30;;;;;;;14.56;60.87;99605.15;236842;1193;22456;-75
2021/09/21 11:34:45;;;;;;;5.90;4.70;;;;;;;14.06;62.01;99617.03;236828;1190;24564;-74
2021/09/21 11:39:48;;;;;;;6.10;4.80;;;;;;;13.48;64.40;99626.16;236926;1190;23241;-74
2021/09/21 11:44:58;;;;;;;9.10;6.70;;;;;;;12.98;66.64;99610.23;236815;1190;24075;-76
2021/09/21 11:50:18;;;;;;;7.20;6.00;;;;;;;12.69;68.78;99598.48;237238;1197;22587;-76
2021/09/21 11:55:24;;;;;;;7.10;4.40;;;;;;;12.59;69.90;99594.65;237371;1190;24151;-75
2021/09/21 12:00:35;;;;;;;5.50;4.50;;;;;;;12.64;70.64;99597.25;237227;1190;24030;-74
2021/09/21 12:05:41;;;;;;;6.80;4.80;;;;;;;12.86;71.38;99593.24;237308;1196;22453;-75
2021/09/21 12:10:50;;;;;;;5.20;3.90;;;;;;;13.18;71.51;99588.35;237013;1197;22465;-74
2021/09/21 12:16:11;;;;;;;4.90;4.40;;;;;;;13.46;70.89;99587.31;236582;1190;22433;-74
2021/09/21 12:21:18;;;;;;;3.80;3.20;;;;;;;13.68;70.81;99583.66;237503;1197;24049;-75
2021/09/21 12:26:22;;;;;;;4.10;3.40;;;;;;;13.95;70.28;99589.27;236497;1192;24095;-76
2021/09/21 12:31:27;;;;;;;5.40;3.70;;;;;;;13.97;69.80;99588.98;236453;1197;22468;-75
2021/09/21 12:36:44;;;;;;;5.40;3.70;;;;;;;13.94;69.66;99592.31;236215;1190;22545;-74
2021/09/21 12:41:52;;;;;;;5.00;3.40;;;;;;;13.87;69.31;99601.02;236521;1190;22419;-72
2021/09/21 12:46:58;;;;;;;4.00;3.60;;;;;;;13.74;69.08;99599.04;236468;1196;22470;-73
2021/09/21 12:52:03;;;;;;;5.90;4.90;;;;;;;13.61;69.14;99600.80;236099;1190;24056;-74
2021/09/21 12:57:06;;;;;;;5.60;4.00;;;;;;;13.51;69.85;99605.55;236140;1190;24579;-73
2021/09/21 13:02:17;;;;;;;10.70;7.70;;;;;;;13.47;70.73;99600.13;236016;1197;22416;-72
2021/09/21 13:07:29;;;;;;;5.40;4.20;;;;;;;13.43;71.10;99595.70;236163;1196;22452;-74
2021/09/21 13:12:33;;;;;;;5.10;4.10;;;;;;;13.33;71.76;99590.19;236204;1197;24189;-73
2021/09/21 13:17:36;;;;;;;6.80;4.60;;;;;;;13.32;72.19;99582.23;236179;1197;24012;-72
2021/09/21 13:22:38;;;;;;;10.50;5.20;;;;;;;13.36;72.50;99584.95;236376;1197;22426;-73
2021/09/21 13:27:42;;;;;;;5.70;4.10;;;;;;;13.45;72.53;99576.84;236477;1197;22561;-74
2021/09/21 13:32:45;;;;;;;6.80;5.20;;;;;;;13.56;72.70;99573.09;236624;1197;24044;-74
2021/09/21 13:37:56;;;;;;;7.70;5.90;;;;;;;13.76;73.00;99571.27;236947;1196;24075;-80
2021/09/21 13:43:09;;;;;;;5.10;3.80;;;;;;;13.96;72.57;99567.34;236732;1197;25070;-74
2021/09/21 13:48:12;;;;;;;4.70;4.00;;;;;;;14.06;72.20;99562.77;236516;1189;26200;-73
2021/09/21 13:53:14;;;;;;;4.10;3.80;;;;;;;14.16;71.62;99559.45;236690;1197;25323;-74
2021/09/21 13:58:19;;;;;;;5.00;3.50;;;;;;;14.19;71.29;99558.28;237008;1193;24184;-75
2021/09/21 14:03:22;;;;;;;5.40;4.00;;;;;;;14.13;70.71;99554.06;237290;1183;24040;-75
2021/09/21 14:08:25;;;;;;;5.20;4.10;;;;;;;14.04;69.89;99552.63;237427;1197;22528;-75
2021/09/21 14:13:34;;;;;;;5.20;4.30;;;;;;;13.92;69.73;99557.05;237211;1197;22495;-73
2021/09/21 14:18:58;;;;;;;5.80;4.30;;;;;;;13.89;70.19;99557.11;236641;1190;22447;-76
2021/09/21 14:24:00;;;;;;;5.80;4.90;;;;;;;13.89;70.29;99553.54;235906;1190;25284;-75
2021/09/21 14:29:04;;;;;;;7.20;4.90;;;;;;;13.82;70.35;99558.85;236289;1197;24028;-77
2021/09/21 14:34:09;;;;;;;5.40;4.30;;;;;;;13.72;70.58;99563.41;236243;1190;24089;-75
2021/09/21 14:39:12;;;;;;;7.30;5.00;;;;;;;13.67;70.93;99558.96;236179;1197;24078;-75
2021/09/21 14:44:15;;;;;;;7.20;5.20;;;;;;;13.62;71.14;99556.98;235814;1198;24081;-75
2021/09/21 14:49:23;;;;;;;14.30;9.70;;;;;;;13.62;71.71;99550.83;236364;1183;24142;-75
2021/09/21 14:54:46;;;;;;;7.80;4.50;;;;;;;13.64;71.84;99550.44;236050;1196;24860;-74
2021/09/21 14:59:48;;;;;;;5.60;4.80;;;;;;;13.60;71.78;99547.09;236066;1197;22517;-75
2021/09/21 15:04:51;;;;;;;5.60;4.70;;;;;;;13.63;71.95;99544.58;236112;1192;22439;-75
2021/09/21 15:09:54;;;;;;;5.90;4.90;;;;;;;13.62;71.51;99547.55;236152;1190;24088;-76
2021/09/21 15:14:56;;;;;;;5.70;4.10;;;;;;;13.58;71.15;99548.84;236213;1197;24053;-75
2021/09/21 15:20:01;;;;;;;5.50;4.40;;;;;;;13.59;70.52;99551.62;236174;1192;24172;-75
2021/09/21 15:25:07;;;;;;;6.40;4.30;;;;;;;13.52;70.19;99548.98;236161;1189;24566;-74
2021/09/21 15:30:15;;;;;;;6.80;4.60;;;;;;;13.41;70.07;99545.45;236101;1197;25130;-75
2021/09/21 15:35:18;;;;;;;5.50;3.90;;;;;;;13.29;70.17;99538.02;236092;1189;24142;-76
2021/09/21 15:40:25;;;;;;;9.50;5.80;;;;;;;13.22;70.29;99543.16;236077;1191;26333;-76
2021/09/21 15:45:27;;;;;;;8.60;4.20;;;;;;;13.07;70.30;99546.89;236367;1191;22559;-73
2021/09/21 15:50:30;;;;;;;8.60;4.10;;;;;;;12.92;70.31;99545.64;236298;1197;23651;-74
2021/09/21 15:55:35;;;;;;;6.60;3.90;;;;;;;12.74;70.20;99546.18;236275;1189;24073;-71
2021/09/21 16:00:37;;;;;;;6.40;4.30;;;;;;;12.53;70.01;99548.00;236501;1174;22422;-73
2021/09/21 16:05:40;;;;;;;7.30;4.50;;;;;;;12.37;70.45;99556.45;236203;1196;23219;-72
2021/09/21 16:10:45;;;;;;;6.70;4.60;;;;;;;12.27;70.83;99560.50;236237;1190;22550;-73
2021/09/21 16:16:01;;;;;;;7.00;5.00;;;;;;;12.17;70.86;99555.69;236293;1197;25361;-73
2021/09/21 16:21:21;;;;;;;10.20;6.50;;;;;;;12.12;71.19;99559.05;236158;1190;24091;-73
2021/09/21 16:26:24;;;;;;;9.10;5.90;;;;;;;12.05;71.53;99555.77;236221;1190;24078;-74
2021/09/21 16:31:26;;;;;;;9.10;6.80;;;;;;;11.98;71.59;99554.68;236269;1197;22423;-71
2021/09/21 16:36:29;;;;;;;8.30;5.70;;;;;;;11.88;71.88;99565.08;236429;1191;24102;-73
2021/09/21 16:41:31;;;;;;;8.90;5.80;;;;;;;11.78;72.08;99565.02;236658;1190;24034;-73
2021/09/21 16:46:37;;;;;;;11.10;6.90;;;;;;;11.73;72.35;99560.12;236625;1190;25225;-73
2021/09/21 16:51:39;;;;;;;9.70;7.10;;;;;;;11.67;72.60;99566.64;236411;1197;22858;-73
2021/09/21 16:56:41;;;;;;;15.00;9.30;;;;;;;11.57;72.95;99571.90;236533;1197;24089;-74
2021/09/21 17:01:44;;;;;;;11.60;8.00;;;;;;;11.41;73.27;99577.60;236198;1190;24062;-74
2021/09/21 17:06:48;;;;;;;11.80;8.00;;;;;;;11.30;73.96;99579.55;236354;1190;22433;-73
2021/09/21 17:11:50;;;;;;;7.40;5.20;;;;;;;11.24;74.48;99599.70;236116;1198;22562;-71
2021/09/21 17:16:53;;;;;;;6.00;5.10;;;;;;;11.16;74.64;99602.61;236355;1197;22483;-73
2021/09/21 17:21:55;;;;;;;5.60;4.90;;;;;;;11.01;74.94;99610.84;236268;1197;22465;-73
2021/09/21 17:26:58;;;;;;;5.80;5.10;;;;;;;10.73;75.33;99621.85;236401;1190;24118;-74
2021/09/21 17:32:14;;;;;;;5.30;4.80;;;;;;;10.43;75.83;99611.29;236588;1197;22491;-71
2021/09/21 17:37:21;;;;;;;7.30;4.90;;;;;;;10.23;76.49;99599.83;236593;1196;25151;-73
2021/09/21 17:42:37;;;;;;;9.20;5.30;;;;;;;10.07;76.54;99590.73;236284;1198;24413;-71
2021/09/21 17:48:09;;;;;;;6.90;4.80;;;;;;;9.95;76.95;99591.24;236245;1189;24053;-71
2021/09/21 17:53:11;;;;;;;6.50;4.30;;;;;;;9.92;77.19;99595.74;236303;1197;24092;-73
2021/09/21 17:58:15;;;;;;;6.10;4.70;;;;;;;9.89;77.16;99597.54;236344;1197;22487;-73
2021/09/21 18:03:17;;;;;;;6.50;5.00;;;;;;;9.84;77.32;99593.79;236067;1192;24089;-74
2021/09/21 18:08:20;;;;;;;6.00;4.60;;;;;;;9.80;77.44;99581.63;236666;1197;24170;-73
2021/09/21 18:13:23;;;;;;;8.10;5.70;;;;;;;9.81;77.62;99581.09;236585;1191;22449;-75
2021/09/21 18:18:51;;;;;;;10.80;7.30;;;;;;;9.84;77.71;99576.17;236834;1190;22436;-71
2021/09/21 18:23:53;;;;;;;8.90;6.60;;;;;;;9.82;77.51;99576.98;236365;1197;22423;-74
2021/09/21 18:28:56;;;;;;;9.20;6.20;;;;;;;9.84;77.80;99574.15;236489;1190;24034;-71
2021/09/21 18:33:58;;;;;;;7.70;6.40;;;;;;;9.87;77.95;99575.66;236615;1191;24174;-71
2021/09/21 18:39:02;;;;;;;11.30;7.30;;;;;;;9.87;77.83;99574.70;236637;1198;22401;-73
2021/09/21 18:44:09;;;;;;;8.40;6.50;;;;;;;9.89;78.00;99563.19;236517;1197;22417;-71
2021/09/21 18:49:12;;;;;;;8.70;6.40;;;;;;;9.91;77.96;99559.45;236550;1197;22548;-73
2021/09/21 18:54:18;;;;;;;7.90;5.60;;;;;;;9.95;78.01;99556.94;236760;1197;24066;-74
2021/09/21 18:59:21;;;;;;;10.90;7.50;;;;;;;9.95;77.86;99561.33;237057;1190;24083;-73
2021/09/21 19:04:24;;;;;;;9.20;6.90;;;;;;;9.93;78.07;99557.36;237033;1189;24065;-72
2021/09/21 19:09:31;;;;;;;9.10;7.10;;;;;;;9.85;78.15;99559.16;236991;1189;25273;-73
2021/09/21 19:14:35;;;;;;;10.70;7.90;;;;;;;9.82;78.45;99557.02;237620;1191;24215;-74
2021/09/21 19:19:39;;;;;;;12.20;8.60;;;;;;;9.74;78.73;99564.01;237646;1197;24034;-73
2021/09/21 19:24:44;;;;;;;11.60;8.50;;;;;;;9.70;79.16;99567.31;237726;1197;24081;-76
2021/09/21 19:29:47;;;;;;;12.90;8.50;;;;;;;9.74;79.56;99559.30;237759;1190;23615;-73
2021/09/21 19:34:54;;;;;;;11.30;8.00;;;;;;;9.78;79.83;99564.93;237323;1196;22458;-73
2021/09/21 19:39:56;;;;;;;9.70;7.50;;;;;;;9.87;80.04;99565.85;237052;1196;25186;-74
2021/09/21 19:44:59;;;;;;;10.30;7.90;;;;;;;9.88;80.05;99556.23;237313;1196;22429;-74
2021/09/21 19:50:04;;;;;;;9.80;7.80;;;;;;;9.86;80.19;99555.90;237298;1174;26305;-72
2021/09/21 19:55:08;;;;;;;11.10;8.20;;;;;;;9.86;80.30;99556.81;236806;1183;24114;-71
2021/09/21 20:00:14;;;;;;;12.30;9.70;;;;;;;9.90;80.48;99547.18;236650;1197;26189;-73
2021/09/21 20:05:17;;;;;;;12.40;10.10;;;;;;;9.92;80.54;99540.65;236667;1190;24130;-71
2021/09/21 20:10:20;;;;;;;12.40;9.20;;;;;;;9.88;80.39;99532.63;236823;1197;23993;-73
2021/09/21 20:15:23;;;;;;;13.60;10.00;;;;;;;9.84;80.61;99532.18;236537;1197;24088;-73
2021/09/21 20:20:27;;;;;;;11.20;9.50;;;;;;;9.86;80.76;99532.83;236797;1197;24035;-72
2021/09/21 20:25:30;;;;;;;10.60;7.70;;;;;;;9.86;80.90;99530.84;236873;1197;22452;-73
2021/09/21 20:30:33;;;;;;;11.40;8.40;;;;;;;9.81;80.92;99536.95;236712;1183;22454;-72
2021/09/21 20:41:13;;;;;;;10.70;8.50;;;;;;;9.78;81.16;99526.50;235939;1197;24057;-73
2021/09/21 20:46:16;;;;;;;9.10;6.70;;;;;;;9.77;81.28;99532.27;236142;1193;25681;-73
2021/09/21 20:51:19;;;;;;;8.60;6.50;;;;;;;9.80;81.34;99533.03;236476;1197;22502;-73
2021/09/21 20:56:22;;;;;;;9.30;6.70;;;;;;;9.80;81.27;99527.40;236113;1197;22558;-73
2021/09/21 21:01:25;;;;;;;9.30;6.50;;;;;;;9.81;81.52;99530.67;236058;1197;24060;-72
2021/09/21 21:06:28;;;;;;;7.00;5.70;;;;;;;9.78;81.46;99530.52;236040;1197;24056;-71
2021/09/21 21:11:31;;;;;;;9.30;7.00;;;;;;;9.72;81.57;99534.36;236164;1197;22452;-71
2021/09/21 21:16:35;;;;;;;8.70;7.00;;;;;;;9.69;81.85;99532.90;236224;1197;24040;-71
2021/09/21 21:21:40;;;;;;;9.70;7.10;;;;;;;9.68;82.00;99521.50;235989;1197;22415;-71
2021/09/21 21:26:42;;;;;;;8.60;7.60;;;;;;;9.67;81.96;99524.02;236241;1197;24126;-72
2021/09/21 21:31:45;;;;;;;6.60;5.90;;;;;;;9.63;82.44;99517.67;236215;1197;24062;-73
2021/09/21 21:36:52;;;;;;;12.20;8.20;;;;;;;9.59;82.44;99513.29;236089;1197;22445;-71
2021/09/21 21:42:15;;;;;;;8.80;7.70;;;;;;;9.57;82.55;99507.89;236274;1197;22568;-73
2021/09/21 21:47:31;;;;;;;9.20;7.10;;;;;;;9.58;82.84;99507.84;236230;1193;22460;-73
2021/09/21 21:52:51;;;;;;;9.90;7.70;;;;;;;9.58;82.90;99504.30;236072;1197;22448;-72
2021/09/21 21:57:55;;;;;;;7.40;6.50;;;;;;;9.61;83.12;99505.48;236206;1183;22433;-71
2021/09/21 22:03:00;;;;;;;10.20;6.90;;;;;;;9.54;82.79;99498.95;236190;1174;22424;-71
2021/09/21 22:08:03;;;;;;;10.50;6.90;;;;;;;9.48;82.98;99498.65;236270;1183;22444;-73
2021/09/21 22:13:07;;;;;;;10.10;7.90;;;;;;;9.43;83.06;99493.19;236105;1190;24060;-73
2021/09/21 22:18:11;;;;;;;9.30;7.30;;;;;;;9.34;83.36;99484.33;236197;1197;22829;-71
2021/09/21 22:23:20;;;;;;;8.60;6.80;;;;;;;9.29;83.48;99479.88;236052;1184;24040;-72
2021/09/21 22:28:23;;;;;;;9.70;6.70;;;;;;;9.22;83.71;99479.86;236154;1197;23094;-70
2021/09/21 22:33:26;;;;;;;8.20;6.00;;;;;;;9.17;83.96;99470.74;236201;1190;24109;-73
2021/09/21 22:38:29;;;;;;;8.00;7.20;;;;;;;9.12;84.11;99470.25;236303;1190;22443;-72
2021/09/21 22:43:34;;;;;;;9.40;7.70;;;;;;;9.09;84.37;99464.89;235923;1198;24056;-70
2021/09/21 22:48:37;;;;;;;10.90;8.10;;;;;;;9.06;84.61;99458.30;236063;1190;22563;-73
2021/09/21 22:53:40;;;;;;;9.60;7.00;;;;;;;9.09;84.95;99449.80;236315;1190;24111;-73
2021/09/21 22:58:56;;;;;;;8.80;7.20;;;;;;;9.13;85.04;99442.23;236121;1197;23986;-71
2021/09/21 23:04:17;;;;;;;9.50;7.20;;;;;;;9.07;84.91;99435.27;235992;1197;25073;-74
2021/09/21 23:09:33;;;;;;;9.50;7.60;;;;;;;9.02;85.20;99428.89;235975;1197;24149;-71
2021/09/21 23:14:36;;;;;;;9.20;7.60;;;;;;;8.99;85.59;99425.29;236060;1184;24088;-73
2021/09/21 23:19:39;;;;;;;11.20;8.00;;;;;;;8.98;85.68;99418.30;236164;1197;22547;-71
2021/09/21 23:24:43;;;;;;;10.10;6.70;;;;;;;8.97;85.74;99410.85;236138;1190;22456;-71
2021/09/21 23:29:45;;;;;;;9.90;6.90;;;;;;;8.96;85.91;99406.20;235995;1190;22445;-71
2021/09/21 23:34:49;;;;;;;8.30;7.00;;;;;;;8.94;86.17;99399.79;236171;1197;24039;-73
2021/09/21 23:39:51;;;;;;;9.70;7.50;;;;;;;8.89;86.37;99390.09;236284;1190;22449;-71
2021/09/21 23:44:55;;;;;;;9.40;7.50;;;;;;;8.88;86.45;99389.08;236163;1197;25293;-73
2021/09/21 23:49:57;;;;;;;7.90;6.80;;;;;;;8.89;86.46;99379.45;236182;1197;24097;-73
2021/09/21 23:55:00;;;;;;;12.20;8.10;;;;;;;8.89;86.68;99375.45;236128;1190;24055;-74
